createdAt,value
2023-04-04T00:00:52.102Z,102783.75
2023-04-04T00:03:19.212Z,102782.09
2023-04-04T00:05:46.352Z,102784.25
2023-04-04T00:08:13.445Z,102781.50
2023-04-04T00:10:40.829Z,102776.72
2023-04-04T00:13:09.351Z,102776.56
2023-04-04T00:15:39.196Z,102778.47
2023-04-04T00:18:08.861Z,102787.72
2023-04-04T00:20:38.529Z,102773.66
2023-04-04T00:23:05.775Z,102774.50
2023-04-04T00:25:35.389Z,102776.75
2023-04-04T00:28:02.268Z,102776.53
2023-04-04T00:30:32.157Z,102776.59
2023-04-04T00:33:02.059Z,102776.75
2023-04-04T00:35:29.516Z,102769.50
2023-04-04T00:37:56.831Z,102761.53
2023-04-04T00:40:26.780Z,102765.69
2023-04-04T00:42:54.079Z,102762.59
2023-04-04T00:45:21.668Z,102754.19
2023-04-04T00:47:50.536Z,102761.81
2023-04-04T00:50:17.990Z,102754.19
2023-04-04T00:52:44.868Z,102750.56
2023-04-04T00:55:14.566Z,102747.63
2023-04-04T00:57:41.460Z,102746.44
2023-04-04T01:00:12.032Z,102745.50
2023-04-04T01:02:39.382Z,102741.28
2023-04-04T01:05:08.354Z,102743.19
2023-04-04T01:07:40.520Z,102740.13
2023-04-04T01:10:11.470Z,102749.25
2023-04-04T01:12:42.058Z,102749.31
2023-04-04T01:15:09.852Z,102752.44
2023-04-04T01:17:39.957Z,102748.38
2023-04-04T01:20:15.934Z,102741.06
2023-04-04T01:22:48.218Z,102740.53
2023-04-04T01:25:16.446Z,102738.31
2023-04-04T01:27:43.616Z,102744.88
2023-04-04T01:30:12.542Z,102743.13
2023-04-04T01:32:57.475Z,102746.28
2023-04-04T01:35:44.398Z,102741.53
2023-04-04T01:38:40.563Z,102737.13
2023-04-04T01:41:12.254Z,102734.03
2023-04-04T01:43:41.623Z,102728.34
2023-04-04T01:46:10.979Z,102725.34
2023-04-04T01:48:38.285Z,102721.88
2023-04-04T01:51:06.359Z,102717.66
2023-04-04T01:53:33.467Z,102714.91
2023-04-04T01:56:03.514Z,102716.25
2023-04-04T01:58:33.017Z,102709.22
2023-04-04T02:01:00.059Z,102709.75
2023-04-04T02:03:27.025Z,102703.72
2023-04-04T02:05:54.337Z,102705.00
2023-04-04T02:08:23.665Z,102705.47
2023-04-04T02:10:50.740Z,102700.94
2023-04-04T02:13:20.933Z,102704.16
2023-04-04T02:15:49.394Z,102704.41
2023-04-04T02:18:16.750Z,102698.13
2023-04-04T02:20:45.080Z,102708.22
2023-04-04T02:23:12.212Z,102703.72
2023-04-04T02:25:39.241Z,102709.94
2023-04-04T02:28:08.643Z,102699.19
2023-04-04T02:30:35.625Z,102693.13
2023-04-04T02:33:02.810Z,102704.56
2023-04-04T02:35:29.927Z,102690.22
2023-04-04T02:37:56.909Z,102693.56
2023-04-04T02:40:23.993Z,102701.56
2023-04-04T02:42:53.294Z,102692.66
2023-04-04T02:45:25.910Z,102693.84
2023-04-04T02:47:54.991Z,102699.41
2023-04-04T02:50:22.391Z,102689.59
2023-04-04T02:52:49.379Z,102690.72
2023-04-04T02:55:16.525Z,102684.88
2023-04-04T02:57:46.047Z,102694.44
2023-04-04T03:00:13.641Z,102692.47
2023-04-04T03:02:41.075Z,102688.03
2023-04-04T03:05:08.671Z,102690.59
2023-04-04T03:07:38.331Z,102684.97
2023-04-04T03:10:05.866Z,102683.13
2023-04-04T03:12:32.828Z,102686.72
2023-04-04T03:14:59.906Z,102687.41
2023-04-04T03:17:26.873Z,102684.59
2023-04-04T03:19:53.885Z,102673.44
2023-04-04T03:22:21.017Z,102673.78
2023-04-04T03:24:51.174Z,102678.41
2023-04-04T03:27:18.117Z,102679.66
2023-04-04T03:29:45.056Z,102677.09
2023-04-04T03:32:12.066Z,102681.88
2023-04-04T03:34:44.745Z,102674.84
2023-04-04T03:37:11.907Z,102682.06
2023-04-04T03:39:38.966Z,102672.97
2023-04-04T03:42:06.194Z,102674.53
2023-04-04T03:44:40.731Z,102671.31
2023-04-04T03:47:10.331Z,102674.97
2023-04-04T03:49:39.379Z,102680.19
2023-04-04T03:52:06.681Z,102669.56
2023-04-04T03:54:37.248Z,102675.38
2023-04-04T03:57:04.501Z,102675.97
2023-04-04T03:59:33.672Z,102673.09
2023-04-04T04:02:03.145Z,102671.38
2023-04-04T04:04:30.276Z,102665.97
2023-04-04T04:06:59.691Z,102662.53
2023-04-04T04:09:27.175Z,102665.28
2023-04-04T04:11:54.216Z,102667.56
2023-04-04T04:14:21.267Z,102669.47
2023-04-04T04:16:48.276Z,102663.41
2023-04-04T04:19:17.442Z,102661.47
2023-04-04T04:21:44.925Z,102661.06
2023-04-04T04:24:11.909Z,102658.25
2023-04-04T04:26:38.895Z,102658.25
2023-04-04T04:29:07.357Z,102662.19
2023-04-04T04:31:38.926Z,102659.97
2023-04-04T04:34:13.643Z,102664.94
2023-04-04T04:36:41.148Z,102666.56
2023-04-04T04:39:08.111Z,102669.75
2023-04-04T04:41:39.655Z,102675.25
2023-04-04T04:44:08.904Z,102676.84
2023-04-04T04:46:35.868Z,102683.53
2023-04-04T04:49:05.856Z,102672.84
2023-04-04T04:51:35.038Z,102669.91
2023-04-04T04:54:02.102Z,102681.19
2023-04-04T04:56:29.140Z,102677.13
2023-04-04T04:59:01.612Z,102667.03
2023-04-04T05:01:28.773Z,102670.97
2023-04-04T05:03:59.127Z,102668.34
2023-04-04T05:06:28.624Z,102666.16
2023-04-04T05:08:57.859Z,102655.91
2023-04-04T05:11:27.257Z,102666.50
2023-04-04T05:13:57.347Z,102660.66
2023-04-04T05:16:24.459Z,102661.47
2023-04-04T05:18:53.475Z,102668.22
2023-04-04T05:21:20.936Z,102671.22
2023-04-04T05:23:48.631Z,102677.53
2023-04-04T05:26:15.754Z,102672.69
2023-04-04T05:28:42.749Z,102674.56
2023-04-04T05:31:12.129Z,102671.25
2023-04-04T05:33:39.074Z,102675.66
2023-04-04T05:36:06.300Z,102675.53
2023-04-04T05:41:00.510Z,102675.63
2023-04-04T05:43:32.753Z,102677.94
2023-04-04T05:45:59.827Z,102674.28
2023-04-04T05:48:29.272Z,102670.97
2023-04-04T05:50:56.614Z,102675.22
2023-04-04T05:53:28.220Z,102667.59
2023-04-04T05:55:58.833Z,102671.09
2023-04-04T05:58:28.124Z,102668.66
2023-04-04T06:00:57.334Z,102671.66
2023-04-04T06:03:24.216Z,102667.56
2023-04-04T06:05:57.258Z,102673.91
2023-04-04T06:08:24.261Z,102675.00
2023-04-04T06:10:51.346Z,102677.53
2023-04-04T06:13:18.337Z,102680.84
2023-04-04T06:15:48.444Z,102678.66
2023-04-04T06:18:17.396Z,102679.81
2023-04-04T06:20:44.594Z,102685.09
2023-04-04T06:23:11.779Z,102690.16
2023-04-04T06:25:41.563Z,102691.28
2023-04-04T06:28:09.236Z,102681.94
2023-04-04T06:30:38.270Z,102684.00
2023-04-04T06:33:06.262Z,102684.00
2023-04-04T06:35:36.424Z,102667.63
2023-04-04T06:38:05.560Z,102675.03
2023-04-04T06:40:32.863Z,102674.00
2023-04-04T06:43:00.144Z,102678.53
2023-04-04T06:45:33.558Z,102676.53
2023-04-04T06:48:01.331Z,102676.25
2023-04-04T06:50:34.210Z,102669.50
2023-04-04T06:53:04.254Z,102671.28
2023-04-04T06:55:34.501Z,102672.63
2023-04-04T06:58:04.082Z,102668.56
2023-04-04T07:00:33.508Z,102667.13
2023-04-04T07:03:03.069Z,102669.81
2023-04-04T07:05:30.243Z,102679.53
2023-04-04T07:08:01.820Z,102674.13
2023-04-04T07:10:31.121Z,102675.66
2023-04-04T07:12:58.181Z,102675.28
2023-04-04T07:15:25.188Z,102672.53
2023-04-04T07:17:55.266Z,102675.22
2023-04-04T07:20:24.742Z,102669.69
2023-04-04T07:22:56.637Z,102675.34
2023-04-04T07:25:26.112Z,102677.91
2023-04-04T07:28:02.362Z,102669.31
2023-04-04T07:30:42.002Z,102671.63
2023-04-04T07:33:11.906Z,102671.38
2023-04-04T07:35:38.910Z,102673.03
2023-04-04T07:38:05.905Z,102659.81
2023-04-04T07:40:32.909Z,102657.84
2023-04-04T07:42:59.884Z,102663.66
2023-04-04T07:45:27.017Z,102656.75
2023-04-04T07:47:59.572Z,102665.88
2023-04-04T07:50:26.553Z,102669.84
2023-04-04T07:52:55.910Z,102666.25
2023-04-04T07:55:26.143Z,102671.53
2023-04-04T07:57:54.655Z,102665.53
2023-04-04T08:00:26.633Z,102655.09
2023-04-04T08:02:59.248Z,102655.16
2023-04-04T08:05:28.828Z,102656.09
2023-04-04T08:07:55.798Z,102653.91
2023-04-04T08:10:22.737Z,102657.41
2023-04-04T08:12:53.311Z,102654.47
2023-04-04T08:15:22.734Z,102650.25
2023-04-04T08:17:50.298Z,102644.75
2023-04-04T08:20:17.709Z,102640.41
2023-04-04T08:22:46.970Z,102649.66
2023-04-04T08:25:14.709Z,102644.75
2023-04-04T08:27:44.152Z,102642.09
2023-04-04T08:30:13.547Z,102644.56
2023-04-04T08:32:42.102Z,102648.00
2023-04-04T08:35:12.349Z,102652.53
2023-04-04T08:37:39.829Z,102644.19
2023-04-04T08:40:07.724Z,102639.13
2023-04-04T08:42:36.784Z,102641.25
2023-04-04T08:45:05.320Z,102641.25
2023-04-04T08:47:36.212Z,102629.53
2023-04-04T08:50:08.574Z,102638.22
2023-04-04T08:52:38.201Z,102637.97
2023-04-04T08:55:06.583Z,102642.91
2023-04-04T08:57:33.953Z,102634.41
2023-04-04T09:00:02.476Z,102650.09
2023-04-04T09:03:08.298Z,102634.91
2023-04-04T09:05:37.999Z,102651.13
2023-04-04T09:08:09.176Z,102635.53
2023-04-04T09:10:39.538Z,102648.22
2023-04-04T09:13:15.458Z,102642.81
2023-04-04T09:15:49.552Z,102648.03
2023-04-04T09:18:19.648Z,102642.47
2023-04-04T09:20:48.768Z,102642.63
2023-04-04T09:23:23.951Z,102644.09
2023-04-04T09:28:27.330Z,102630.75
2023-04-04T09:30:56.680Z,102632.91
2023-04-04T09:33:28.249Z,102635.59
2023-04-04T09:35:58.920Z,102633.22
2023-04-04T09:38:27.796Z,102630.31
2023-04-04T09:40:55.995Z,102638.25
2023-04-04T09:43:31.062Z,102624.22
2023-04-04T09:46:00.593Z,102626.59
2023-04-04T09:48:32.761Z,102632.91
2023-04-04T09:51:02.294Z,102633.25
2023-04-04T09:53:32.444Z,102631.66
2023-04-04T09:55:59.468Z,102620.41
2023-04-04T09:58:32.727Z,102636.47
2023-04-04T10:01:12.606Z,102633.31
2023-04-04T10:03:39.924Z,102624.06
2023-04-04T10:06:12.874Z,102622.25
2023-04-04T10:08:41.512Z,102623.34
2023-04-04T10:11:11.362Z,102615.13
2023-04-04T10:13:43.870Z,102610.81
2023-04-04T10:16:13.694Z,102609.81
2023-04-04T10:18:42.851Z,102618.50
2023-04-04T10:21:15.870Z,102605.81
2023-04-04T10:23:46.964Z,102592.34
2023-04-04T10:26:14.445Z,102599.84
2023-04-04T10:28:44.034Z,102595.53
2023-04-04T10:31:20.355Z,102595.97
2023-04-04T10:34:17.982Z,102598.16
2023-04-04T10:37:10.763Z,102591.06
2023-04-04T10:40:03.362Z,102582.84
2023-04-04T10:42:40.836Z,102592.69
2023-04-04T10:45:20.976Z,102582.69
2023-04-04T10:47:49.450Z,102588.34
2023-04-04T10:50:18.946Z,102588.50
2023-04-04T10:52:48.472Z,102580.16
2023-04-04T10:55:17.284Z,102575.09
2023-04-04T10:57:52.944Z,102571.69
2023-04-04T11:00:23.373Z,102564.34
2023-04-04T11:02:59.628Z,102555.63
2023-04-04T11:05:31.843Z,102548.22
2023-04-04T11:10:37.212Z,102549.47
2023-04-04T11:13:14.385Z,102554.88
2023-04-04T11:16:21.531Z,102550.72
2023-04-04T11:18:54.760Z,102549.69
2023-04-04T11:21:29.964Z,102544.78
2023-04-04T11:24:02.147Z,102547.19
2023-04-04T11:26:29.037Z,102547.56
2023-04-04T11:29:08.100Z,102552.56
2023-04-04T11:31:42.408Z,102550.69
2023-04-04T11:34:13.753Z,102538.94
2023-04-04T11:36:41.602Z,102535.19
2023-04-04T11:39:14.869Z,102535.72
2023-04-04T11:42:04.958Z,102531.28
2023-04-04T11:44:34.654Z,102530.28
2023-04-04T11:47:09.657Z,102529.25
2023-04-04T11:49:42.434Z,102524.00
2023-04-04T11:52:14.325Z,102517.94
2023-04-04T11:54:45.755Z,102520.47
2023-04-04T11:57:15.637Z,102515.31
2023-04-04T11:59:47.982Z,102509.44
2023-04-04T12:02:32.183Z,102506.53
2023-04-04T12:04:59.870Z,102504.66
2023-04-04T12:07:29.284Z,102497.84
2023-04-04T12:09:58.902Z,102491.56
2023-04-04T12:12:28.317Z,102494.06
2023-04-04T12:15:06.267Z,102479.69
2023-04-04T12:17:44.105Z,102479.22
2023-04-04T12:20:15.999Z,102476.13
2023-04-04T12:22:43.309Z,102488.00
2023-04-04T12:25:11.335Z,102479.72
2023-04-04T12:27:38.729Z,102471.00
2023-04-04T12:30:11.333Z,102472.19
2023-04-04T12:32:41.652Z,102465.88
2023-04-04T12:35:13.427Z,102457.44
2023-04-04T12:37:56.417Z,102460.00
2023-04-04T12:40:23.779Z,102463.16
2023-04-04T12:42:55.374Z,102456.72
2023-04-04T12:45:23.253Z,102464.38
2023-04-04T12:47:58.709Z,102458.31
2023-04-04T12:50:30.835Z,102452.00
2023-04-04T12:55:53.411Z,102443.78
2023-04-04T12:58:24.651Z,102435.44
2023-04-04T13:00:54.704Z,102432.81
2023-04-04T13:03:24.505Z,102439.88
2023-04-04T13:05:54.588Z,102433.13
2023-04-04T13:08:22.042Z,102426.72
2023-04-04T13:11:05.994Z,102425.91
2023-04-04T13:13:44.270Z,102422.63
2023-04-04T13:16:14.427Z,102423.00
2023-04-04T13:18:44.216Z,102423.75
2023-04-04T13:21:12.609Z,102413.38
2023-04-04T13:23:41.412Z,102413.19
2023-04-04T13:26:12.016Z,102404.78
2023-04-04T13:28:39.622Z,102402.19
2023-04-04T13:31:10.010Z,102403.00
2023-04-04T13:33:38.071Z,102397.28
2023-04-04T13:36:05.895Z,102394.97
2023-04-04T13:38:32.970Z,102388.00
2023-04-04T13:41:02.701Z,102391.41
2023-04-04T13:43:29.944Z,102381.13
2023-04-04T13:46:04.936Z,102378.31
2023-04-04T13:48:34.200Z,102381.78
2023-04-04T13:51:01.367Z,102375.81
2023-04-04T13:53:28.488Z,102368.63
2023-04-04T13:58:25.866Z,102353.69
2023-04-04T14:00:52.964Z,102355.22
2023-04-04T14:03:20.081Z,102349.53
2023-04-04T14:05:51.531Z,102348.53
2023-04-04T14:08:21.153Z,102345.59
2023-04-04T14:10:50.538Z,102345.88
2023-04-04T14:13:18.343Z,102345.13
2023-04-04T14:15:50.491Z,102334.50
2023-04-04T14:18:20.223Z,102339.31
2023-04-04T14:20:49.803Z,102338.59
2023-04-04T14:23:22.262Z,102348.44
2023-04-04T14:25:50.890Z,102338.91
2023-04-04T14:28:18.199Z,102336.41
2023-04-04T14:30:45.235Z,102333.56
2023-04-04T14:33:12.440Z,102325.69
2023-04-04T14:35:39.707Z,102329.19
2023-04-04T14:38:07.003Z,102330.34
2023-04-04T14:40:38.656Z,102329.22
2023-04-04T14:43:05.669Z,102319.72
2023-04-04T14:45:33.325Z,102321.78
2023-04-04T14:48:00.674Z,102321.66
2023-04-04T14:50:30.144Z,102316.84
2023-04-04T14:52:59.536Z,102320.00
2023-04-04T14:55:27.068Z,102311.63
2023-04-04T15:00:27.124Z,102316.59
2023-04-04T15:02:59.575Z,102319.63
2023-04-04T15:05:27.240Z,102313.22
2023-04-04T15:07:55.739Z,102301.50
2023-04-04T15:10:23.229Z,102299.69
2023-04-04T15:12:53.319Z,102302.72
2023-04-04T15:15:22.266Z,102296.38
2023-04-04T15:17:55.592Z,102298.38
2023-04-04T15:20:25.135Z,102296.78
2023-04-04T15:22:52.299Z,102293.03
2023-04-04T15:25:21.575Z,102279.44
2023-04-04T15:27:54.431Z,102286.94
2023-04-04T15:30:21.735Z,102287.69
2023-04-04T15:32:49.037Z,102283.28
2023-04-04T15:35:21.190Z,102277.25
2023-04-04T15:37:49.752Z,102279.31
2023-04-04T15:40:18.113Z,102281.97
2023-04-04T15:42:46.435Z,102269.69
2023-04-04T15:45:14.652Z,102269.69
2023-04-04T15:47:42.638Z,102267.31
2023-04-04T15:50:11.628Z,102276.00
2023-04-04T15:52:41.874Z,102262.56
2023-04-04T15:55:16.772Z,102264.75
2023-04-04T15:57:44.878Z,102263.13
2023-04-04T16:00:13.982Z,102254.22
2023-04-04T16:02:41.263Z,102261.75
2023-04-04T16:05:13.662Z,102249.63
2023-04-04T16:07:42.794Z,102256.50
2023-04-04T16:10:10.626Z,102245.09
2023-04-04T16:12:37.860Z,102247.47
2023-04-04T16:15:12.466Z,102250.28
2023-04-04T16:17:39.395Z,102244.03
2023-04-04T16:20:07.407Z,102243.78
2023-04-04T16:22:37.014Z,102246.28
2023-04-04T16:25:04.584Z,102245.72
2023-04-04T16:27:31.794Z,102245.19
2023-04-04T16:29:58.829Z,102240.47
2023-04-04T16:32:31.667Z,102241.03
2023-04-04T16:35:01.249Z,102244.75
2023-04-04T16:37:30.790Z,102246.75
2023-04-04T16:40:01.070Z,102238.16
2023-04-04T16:42:28.309Z,102236.13
2023-04-04T16:44:55.463Z,102233.84
2023-04-04T16:47:26.131Z,102228.97
2023-04-04T16:49:54.870Z,102230.88
2023-04-04T16:52:24.114Z,102234.78
2023-04-04T16:54:51.076Z,102230.50
2023-04-04T16:57:18.226Z,102233.88
2023-04-04T16:59:47.599Z,102229.84
2023-04-04T17:02:19.860Z,102230.03
2023-04-04T17:04:46.791Z,102235.81
2023-04-04T17:07:16.377Z,102233.88
2023-04-04T17:09:48.205Z,102233.06
2023-04-04T17:12:16.275Z,102225.00
2023-04-04T17:14:46.643Z,102229.75
2023-04-04T17:17:17.391Z,102228.53
2023-04-04T17:19:46.613Z,102228.09
2023-04-04T17:22:16.441Z,102223.25
2023-04-04T17:24:48.204Z,102234.31
2023-04-04T17:27:15.247Z,102238.78
2023-04-04T17:29:44.553Z,102227.34
2023-04-04T17:32:15.297Z,102225.66
2023-04-04T17:34:42.292Z,102228.88
2023-04-04T17:37:11.259Z,102232.59
2023-04-04T17:39:38.430Z,102236.81
2023-04-04T17:42:05.997Z,102234.38
2023-04-04T17:44:33.164Z,102233.63
2023-04-04T17:47:03.099Z,102230.47
2023-04-04T17:49:30.522Z,102234.41
2023-04-04T17:51:59.768Z,102233.78
2023-04-04T17:54:30.808Z,102228.81
2023-04-04T17:57:00.323Z,102230.25
2023-04-04T17:59:27.918Z,102230.31
2023-04-04T18:01:57.340Z,102230.31
2023-04-04T18:04:25.503Z,102225.56
2023-04-04T18:06:54.781Z,102223.66
2023-04-04T18:09:23.729Z,102229.91
2023-04-04T18:11:51.250Z,102232.50
2023-04-04T18:14:20.885Z,102237.00
2023-04-04T18:16:47.884Z,102231.50
2023-04-04T18:19:14.977Z,102241.31
2023-04-04T18:21:49.732Z,102235.47
2023-04-04T18:24:19.145Z,102234.47
2023-04-04T18:26:48.691Z,102236.50
2023-04-04T18:29:15.999Z,102232.63
2023-04-04T18:31:43.139Z,102242.94
2023-04-04T18:34:10.124Z,102243.03
2023-04-04T18:36:42.331Z,102240.88
2023-04-04T18:39:09.791Z,102243.00
2023-04-04T18:41:39.654Z,102241.13
2023-04-04T18:44:09.568Z,102241.19
2023-04-04T18:46:38.208Z,102242.81
2023-04-04T18:49:08.168Z,102251.16
2023-04-04T18:51:35.288Z,102241.88
2023-04-04T18:54:02.278Z,102246.81
2023-04-04T18:56:34.184Z,102238.94
2023-04-04T18:59:01.199Z,102250.16
2023-04-04T19:01:28.713Z,102251.94
2023-04-04T19:03:56.935Z,102252.19
2023-04-04T19:06:27.530Z,102249.81
2023-04-04T19:08:58.944Z,102252.09
2023-04-04T19:11:29.020Z,102247.81
2023-04-04T19:13:56.165Z,102254.81
2023-04-04T19:16:24.074Z,102259.75
2023-04-04T19:18:51.249Z,102248.66
2023-04-04T19:21:18.344Z,102254.59
2023-04-04T19:23:46.520Z,102253.84
2023-04-04T19:26:18.265Z,102257.28
2023-04-04T19:28:46.439Z,102256.19
2023-04-04T19:31:30.142Z,102251.75
2023-04-04T19:34:02.150Z,102250.91
2023-04-04T19:36:33.555Z,102252.75
2023-04-04T19:39:00.764Z,102246.22
2023-04-04T19:41:48.556Z,102247.78
2023-04-04T19:44:20.671Z,102251.56
2023-04-04T19:46:47.840Z,102249.78
2023-04-04T19:49:19.875Z,102249.97
2023-04-04T19:51:56.844Z,102244.06
2023-04-04T19:54:42.690Z,102241.66
2023-04-04T19:57:20.614Z,102245.28
2023-04-04T20:00:03.458Z,102252.41
2023-04-04T20:02:33.652Z,102245.69
2023-04-04T20:05:01.476Z,102250.75
2023-04-04T20:07:29.495Z,102243.44
2023-04-04T20:09:59.142Z,102244.72
2023-04-04T20:12:29.822Z,102232.13
2023-04-04T20:14:59.716Z,102239.19
2023-04-04T20:17:29.073Z,102242.88
2023-04-04T20:19:56.306Z,102236.03
2023-04-04T20:22:23.684Z,102242.91
2023-04-04T20:24:50.995Z,102242.91
2023-04-04T20:27:24.425Z,102244.06
2023-04-04T20:29:54.324Z,102246.41
2023-04-04T20:32:21.476Z,102245.16
2023-04-04T20:34:52.935Z,102245.81
2023-04-04T20:37:29.182Z,102248.09
2023-04-04T20:40:04.495Z,102247.91
2023-04-04T20:42:38.064Z,102247.44
2023-04-04T20:45:28.962Z,102253.81
2023-04-04T20:48:01.727Z,102252.41
2023-04-04T20:50:31.264Z,102251.66
2023-04-04T20:53:04.760Z,102246.91
2023-04-04T20:55:37.005Z,102252.72
2023-04-04T20:58:12.186Z,102254.34
2023-04-04T21:00:45.677Z,102258.78
2023-04-04T21:03:31.029Z,102249.06
2023-04-04T21:06:10.320Z,102260.28
2023-04-04T21:08:45.944Z,102256.63
2023-04-04T21:11:14.394Z,102253.81
2023-04-04T21:13:46.864Z,102257.91
2023-04-04T21:16:19.545Z,102254.25
2023-04-04T21:18:49.054Z,102258.13
2023-04-04T21:21:19.763Z,102255.31
2023-04-04T21:23:54.423Z,102255.84
2023-04-04T21:26:37.612Z,102247.44
2023-04-04T21:29:08.493Z,102246.03
2023-04-04T21:31:41.548Z,102242.88
2023-04-04T21:34:21.406Z,102248.88
2023-04-04T21:36:59.759Z,102239.69
2023-04-04T21:39:29.725Z,102239.25
2023-04-04T21:42:07.838Z,102238.16
2023-04-04T21:44:36.394Z,102231.25
2023-04-04T21:47:03.365Z,102239.16
2023-04-04T21:49:32.550Z,102229.59
2023-04-04T21:52:01.985Z,102229.41
2023-04-04T21:54:31.519Z,102239.78
2023-04-04T21:57:01.048Z,102234.59
2023-04-04T21:59:30.112Z,102230.34
2023-04-04T22:01:57.195Z,102228.47
2023-04-04T22:04:24.176Z,102224.66
2023-04-04T22:06:51.468Z,102222.19
2023-04-04T22:09:19.265Z,102220.69
2023-04-04T22:11:46.304Z,102222.59
2023-04-04T22:14:17.464Z,102218.19
2023-04-04T22:16:45.323Z,102222.00
2023-04-04T22:19:12.533Z,102215.28
2023-04-04T22:21:46.805Z,102207.22
2023-04-04T22:24:18.319Z,102216.94
2023-04-04T22:26:45.969Z,102210.50
2023-04-04T22:29:13.276Z,102213.75
2023-04-04T22:31:47.412Z,102215.59
2023-04-04T22:34:15.455Z,102210.03
2023-04-04T22:36:43.799Z,102212.56
2023-04-04T22:39:10.871Z,102202.97
2023-04-04T22:41:40.288Z,102204.72
2023-04-04T22:44:09.448Z,102203.91
2023-04-04T22:46:38.835Z,102209.81
2023-04-04T22:49:07.120Z,102197.34
2023-04-04T22:51:45.634Z,102201.56
2023-04-04T22:54:15.630Z,102200.91
2023-04-04T22:56:42.961Z,102212.38
2023-04-04T22:59:10.107Z,102196.47
2023-04-04T23:01:42.207Z,102193.69
2023-04-04T23:04:11.935Z,102190.41
2023-04-04T23:06:38.915Z,102186.09
2023-04-04T23:09:07.839Z,102190.25
2023-04-04T23:11:35.204Z,102183.75
2023-04-04T23:14:09.590Z,102190.56
2023-04-04T23:16:37.355Z,102186.09
2023-04-04T23:19:05.028Z,102190.41
2023-04-04T23:21:34.562Z,102180.03
2023-04-04T23:24:03.612Z,102182.88
2023-04-04T23:26:33.738Z,102179.69
2023-04-04T23:29:06.380Z,102187.47
2023-04-04T23:31:33.338Z,102189.03
2023-04-04T23:34:00.498Z,102182.28
2023-04-04T23:36:27.786Z,102176.22
2023-04-04T23:38:57.071Z,102179.78
2023-04-04T23:41:24.078Z,102173.81
2023-04-04T23:43:51.199Z,102177.63
2023-04-04T23:46:18.332Z,102181.78
2023-04-04T23:48:47.951Z,102176.25
2023-04-04T23:51:16.229Z,102179.16
2023-04-04T23:53:48.658Z,102176.75
2023-04-04T23:56:16.582Z,102170.84
2023-04-04T23:58:46.261Z,102180.72
